createdAt,value
2022-12-14T00:01:37.556Z,0.67
2022-12-14T00:04:04.987Z,0.63
2022-12-14T00:06:33.561Z,0.64
2022-12-14T00:09:04.751Z,0.63
2022-12-14T00:11:33.965Z,0.64
2022-12-14T00:14:04.177Z,0.66
2022-12-14T00:16:34.216Z,0.68
2022-12-14T00:19:02.961Z,0.69
2022-12-14T00:21:30.043Z,0.66
2022-12-14T00:23:59.534Z,0.67
2022-12-14T00:26:31.117Z,0.64
2022-12-14T00:29:01.024Z,0.59
2022-12-14T00:31:29.361Z,0.57
2022-12-14T00:33:56.365Z,0.61
2022-12-14T00:36:24.304Z,0.65
2022-12-14T00:38:51.246Z,0.67
2022-12-14T00:41:18.298Z,0.70
2022-12-14T00:43:49.342Z,0.68
2022-12-14T00:46:17.284Z,0.66
2022-12-14T00:48:44.614Z,0.63
2022-12-14T00:51:14.867Z,0.58
2022-12-14T00:53:44.585Z,0.54
2022-12-14T00:56:12.492Z,0.59
2022-12-14T00:58:39.576Z,0.62
2022-12-14T01:01:13.352Z,0.63
2022-12-14T01:03:40.617Z,0.65
2022-12-14T01:06:14.728Z,0.68
2022-12-14T01:08:41.735Z,0.70
2022-12-14T01:11:10.122Z,0.67
2022-12-14T01:13:38.893Z,0.64
2022-12-14T01:16:12.724Z,0.57
2022-12-14T01:18:42.621Z,0.57
2022-12-14T01:21:17.898Z,0.51
2022-12-14T01:23:46.821Z,0.42
2022-12-14T01:26:16.348Z,0.38
2022-12-14T01:28:43.987Z,0.41
2022-12-14T01:31:16.556Z,0.44
2022-12-14T01:33:44.715Z,0.54
2022-12-14T01:36:15.065Z,0.65
2022-12-14T01:38:42.110Z,0.73
2022-12-14T01:41:20.630Z,0.75
2022-12-14T01:43:51.189Z,0.76
2022-12-14T01:46:28.149Z,0.69
2022-12-14T01:49:02.195Z,0.55
2022-12-14T01:51:32.471Z,0.52
2022-12-14T01:54:05.136Z,0.49
2022-12-14T01:56:41.154Z,0.48
2022-12-14T01:59:14.727Z,0.50
2022-12-14T02:01:43.649Z,0.56
2022-12-14T02:04:16.530Z,0.64
2022-12-14T02:06:48.903Z,0.70
2022-12-14T02:09:22.281Z,0.77
2022-12-14T02:12:02.220Z,0.84
2022-12-14T02:14:30.424Z,0.94
2022-12-14T02:16:58.827Z,1.02
2022-12-14T02:19:25.930Z,1.09
2022-12-14T02:22:18.942Z,1.14
2022-12-14T02:25:24.545Z,1.13
2022-12-14T02:28:27.532Z,1.17
2022-12-14T02:31:06.082Z,1.19
2022-12-14T02:33:49.493Z,1.16
2022-12-14T02:36:29.522Z,1.15
2022-12-14T02:39:14.943Z,1.12
2022-12-14T02:41:54.386Z,1.09
2022-12-14T02:44:34.770Z,1.15
2022-12-14T02:47:14.862Z,1.25
2022-12-14T02:50:02.204Z,1.24
2022-12-14T02:52:41.538Z,1.21
2022-12-14T02:55:18.344Z,1.23
2022-12-14T02:57:53.301Z,1.26
2022-12-14T03:00:20.806Z,1.25
2022-12-14T03:02:51.307Z,1.14
2022-12-14T03:05:18.664Z,1.05
2022-12-14T03:07:53.007Z,0.95
2022-12-14T03:10:36.298Z,0.87
2022-12-14T03:13:15.326Z,0.79
2022-12-14T03:15:46.611Z,0.73
2022-12-14T03:18:21.297Z,0.60
2022-12-14T03:20:54.195Z,0.54
2022-12-14T03:23:30.539Z,0.50
2022-12-14T03:26:09.548Z,0.44
2022-12-14T03:28:45.516Z,0.39
2022-12-14T03:31:20.598Z,0.35
2022-12-14T03:33:54.575Z,0.35
2022-12-14T03:36:30.473Z,0.34
2022-12-14T03:39:02.854Z,0.37
2022-12-14T03:41:37.933Z,0.44
2022-12-14T03:44:23.703Z,0.53
2022-12-14T03:46:58.174Z,0.60
2022-12-14T03:49:48.910Z,0.61
2022-12-14T03:52:26.584Z,0.61
2022-12-14T03:55:06.737Z,0.58
2022-12-14T03:57:50.211Z,0.52
2022-12-14T04:00:22.471Z,0.50
2022-12-14T04:03:00.929Z,0.49
2022-12-14T04:05:44.088Z,0.53
2022-12-14T04:08:30.397Z,0.56
2022-12-14T04:11:23.516Z,0.55
2022-12-14T04:14:17.917Z,0.49
2022-12-14T04:17:08.892Z,0.37
2022-12-14T04:19:44.209Z,0.30
2022-12-14T04:22:25.615Z,0.32
2022-12-14T04:25:17.418Z,0.34
2022-12-14T04:27:51.926Z,0.32
2022-12-14T04:30:19.444Z,0.31
2022-12-14T04:32:51.861Z,0.34
2022-12-14T04:35:25.603Z,0.36
2022-12-14T04:38:01.115Z,0.35
2022-12-14T04:40:33.659Z,0.33
2022-12-14T04:43:09.947Z,0.28
2022-12-14T04:45:43.935Z,0.27
2022-12-14T04:48:24.435Z,0.23
2022-12-14T04:50:59.879Z,0.17
2022-12-14T04:53:34.765Z,0.11
2022-12-14T04:56:10.992Z,0.08
2022-12-14T04:58:40.682Z,0.08
2022-12-14T05:01:32.811Z,0.10
2022-12-14T05:04:13.857Z,0.15
2022-12-14T05:06:55.044Z,0.24
2022-12-14T05:09:29.390Z,0.33
2022-12-14T05:12:07.211Z,0.29
2022-12-14T05:14:42.169Z,0.28
2022-12-14T05:17:09.941Z,0.32
2022-12-14T05:19:43.944Z,0.39
2022-12-14T05:22:17.850Z,0.42
2022-12-14T05:24:46.232Z,0.41
2022-12-14T05:27:13.309Z,0.42
2022-12-14T05:29:40.302Z,0.41
2022-12-14T05:32:10.955Z,0.37
2022-12-14T05:34:38.258Z,0.34
2022-12-14T05:37:05.309Z,0.28
2022-12-14T05:39:34.970Z,0.23
2022-12-14T05:42:03.524Z,0.22
2022-12-14T05:44:32.005Z,0.27
2022-12-14T05:46:59.408Z,0.32
2022-12-14T05:49:26.451Z,0.28
2022-12-14T05:51:53.468Z,0.27
2022-12-14T05:54:20.519Z,0.30
2022-12-14T05:56:47.541Z,0.36
2022-12-14T05:59:16.668Z,0.46
2022-12-14T06:01:44.803Z,0.52
2022-12-14T06:04:17.871Z,0.56
2022-12-14T06:06:45.648Z,0.55
2022-12-14T06:09:15.989Z,0.49
2022-12-14T06:11:45.220Z,0.41
2022-12-14T06:14:13.360Z,0.33
2022-12-14T06:16:44.059Z,0.31
2022-12-14T06:19:13.212Z,0.32
2022-12-14T06:21:43.130Z,0.30
2022-12-14T06:24:12.124Z,0.25
2022-12-14T06:26:42.837Z,0.22
2022-12-14T06:29:16.091Z,0.19
2022-12-14T06:31:45.698Z,0.22
2022-12-14T06:34:17.659Z,0.26
2022-12-14T06:36:46.733Z,0.28
2022-12-14T06:39:17.085Z,0.34
2022-12-14T06:41:44.577Z,0.36
2022-12-14T06:44:14.125Z,0.38
2022-12-14T06:46:42.342Z,0.43
2022-12-14T06:49:15.776Z,0.46
2022-12-14T06:51:43.778Z,0.50
2022-12-14T06:54:12.340Z,0.55
2022-12-14T06:56:40.794Z,0.56
2022-12-14T06:59:08.844Z,0.55
2022-12-14T07:01:37.419Z,0.55
2022-12-14T07:04:05.840Z,0.56
2022-12-14T07:06:37.863Z,0.57
2022-12-14T07:09:07.354Z,0.56
2022-12-14T07:11:34.457Z,0.56
2022-12-14T07:14:05.827Z,0.56
2022-12-14T07:16:34.816Z,0.54
2022-12-14T07:19:01.933Z,0.53
2022-12-14T07:21:29.334Z,0.52
2022-12-14T07:24:04.052Z,0.54
2022-12-14T07:26:31.460Z,0.58
2022-12-14T07:29:02.639Z,0.63
2022-12-14T07:31:30.022Z,0.68
2022-12-14T07:34:00.072Z,0.68
2022-12-14T07:36:29.746Z,0.68
2022-12-14T07:38:58.303Z,0.68
2022-12-14T07:41:29.338Z,0.67
2022-12-14T07:43:57.951Z,0.67
2022-12-14T07:46:27.958Z,0.69
2022-12-14T07:48:58.547Z,0.68
2022-12-14T07:51:29.559Z,0.66
2022-12-14T07:53:59.888Z,0.65
2022-12-14T07:56:30.192Z,0.63
2022-12-14T07:58:59.432Z,0.65
2022-12-14T08:01:29.776Z,0.71
2022-12-14T08:03:59.844Z,0.78
2022-12-14T08:06:29.452Z,0.85
2022-12-14T08:08:59.145Z,0.91
2022-12-14T08:11:26.841Z,0.95
2022-12-14T08:13:55.105Z,0.99
2022-12-14T08:16:23.283Z,1.08
2022-12-14T08:18:52.984Z,1.12
2022-12-14T08:21:22.042Z,1.18
2022-12-14T08:23:51.010Z,1.18
2022-12-14T08:26:20.177Z,1.16
2022-12-14T08:28:48.510Z,1.16
2022-12-14T08:31:18.679Z,1.15
2022-12-14T08:33:47.576Z,1.14
2022-12-14T08:36:18.057Z,1.19
2022-12-14T08:38:45.535Z,1.24
2022-12-14T08:41:14.687Z,1.26
2022-12-14T08:43:43.098Z,1.25
2022-12-14T08:46:11.155Z,1.24
2022-12-14T08:48:38.284Z,1.28
2022-12-14T08:51:10.764Z,1.34
2022-12-14T08:53:38.814Z,1.36
2022-12-14T08:56:09.177Z,1.36
2022-12-14T08:58:38.185Z,1.34
2022-12-14T09:01:15.403Z,1.34
2022-12-14T09:03:44.852Z,1.35
2022-12-14T09:06:37.318Z,1.36
2022-12-14T09:09:08.176Z,1.40
2022-12-14T09:11:41.031Z,1.44
2022-12-14T09:14:09.692Z,1.47
2022-12-14T09:16:40.078Z,1.45
2022-12-14T09:19:16.009Z,1.34
2022-12-14T09:21:43.431Z,1.27
2022-12-14T09:24:10.499Z,1.13
2022-12-14T09:26:37.491Z,1.06
2022-12-14T09:29:04.568Z,1.00
2022-12-14T09:31:31.726Z,1.00
2022-12-14T09:34:00.528Z,0.96
2022-12-14T09:36:28.593Z,1.06
2022-12-14T09:38:57.970Z,1.19
2022-12-14T09:41:50.931Z,1.24
2022-12-14T09:44:34.059Z,1.22
2022-12-14T09:47:11.898Z,1.29
2022-12-14T09:49:47.514Z,1.42
2022-12-14T09:52:20.079Z,1.46
2022-12-14T09:54:49.704Z,1.49
2022-12-14T09:57:39.070Z,1.53
2022-12-14T10:00:15.080Z,1.61
2022-12-14T10:03:06.582Z,1.63
2022-12-14T10:05:54.988Z,1.70
2022-12-14T10:08:30.284Z,1.89
2022-12-14T10:11:07.469Z,2.22
2022-12-14T10:13:48.365Z,2.49
2022-12-14T10:16:31.631Z,2.59
2022-12-14T10:19:27.694Z,2.63
2022-12-14T10:22:03.668Z,2.72
2022-12-14T10:24:36.175Z,2.74
2022-12-14T10:27:09.408Z,2.73
2022-12-14T10:29:46.524Z,2.73
2022-12-14T10:32:22.516Z,2.72
2022-12-14T10:34:51.609Z,2.72
2022-12-14T10:37:39.198Z,2.70
2022-12-14T10:40:33.707Z,2.68
2022-12-14T10:43:43.545Z,2.65
2022-12-14T10:46:24.889Z,2.66
2022-12-14T10:49:02.428Z,2.73
2022-12-14T10:51:39.769Z,2.76
2022-12-14T10:54:22.606Z,2.80
2022-12-14T10:56:51.020Z,2.89
2022-12-14T10:59:39.839Z,2.95
2022-12-14T11:02:17.681Z,2.99
2022-12-14T11:04:51.298Z,3.05
2022-12-14T11:07:22.657Z,3.13
2022-12-14T11:09:52.284Z,3.18
2022-12-14T11:12:23.848Z,3.23
2022-12-14T11:14:58.058Z,3.31
2022-12-14T11:17:36.742Z,3.34
2022-12-14T11:20:19.209Z,3.36
2022-12-14T11:22:49.538Z,3.42
2022-12-14T11:25:37.924Z,3.41
2022-12-14T11:28:25.670Z,3.37
2022-12-14T11:31:00.975Z,3.41
2022-12-14T11:33:38.062Z,3.58
2022-12-14T11:36:09.841Z,4.54
2022-12-14T11:38:39.451Z,5.90
2022-12-14T11:41:11.811Z,6.82
2022-12-14T11:43:39.663Z,7.61
2022-12-14T11:46:07.706Z,8.05
2022-12-14T11:48:38.319Z,8.28
2022-12-14T11:51:13.912Z,8.37
2022-12-14T11:53:41.423Z,8.32
2022-12-14T11:56:16.798Z,8.47
2022-12-14T11:58:52.265Z,7.99
2022-12-14T12:01:26.702Z,7.74
2022-12-14T12:04:01.017Z,7.53
2022-12-14T12:06:30.227Z,7.32
2022-12-14T12:09:01.286Z,7.20
2022-12-14T12:11:34.863Z,7.26
2022-12-14T12:14:10.912Z,7.31
2022-12-14T12:16:44.602Z,7.07
2022-12-14T12:19:19.922Z,6.73
2022-12-14T12:21:47.422Z,6.46
2022-12-14T12:24:21.774Z,6.24
2022-12-14T12:26:55.375Z,6.43
2022-12-14T12:29:29.612Z,6.10
2022-12-14T12:32:03.639Z,5.87
2022-12-14T12:34:39.449Z,5.67
2022-12-14T12:37:31.528Z,5.49
2022-12-14T12:40:10.305Z,5.37
2022-12-14T12:42:48.373Z,5.24
2022-12-14T12:45:25.296Z,5.11
2022-12-14T12:48:02.958Z,5.45
2022-12-14T12:50:44.117Z,5.23
2022-12-14T12:53:24.391Z,5.13
2022-12-14T12:55:56.052Z,5.06
2022-12-14T12:58:29.812Z,4.97
2022-12-14T13:01:03.450Z,4.85
2022-12-14T13:03:38.801Z,4.78
2022-12-14T13:06:17.615Z,5.28
2022-12-14T13:08:50.006Z,5.08
2022-12-14T13:11:27.186Z,4.99
2022-12-14T13:14:02.907Z,4.87
2022-12-14T13:16:36.893Z,4.79
2022-12-14T13:19:48.654Z,4.75
2022-12-14T13:22:14.662Z,4.68
2022-12-14T13:24:49.553Z,4.52
2022-12-14T13:28:04.191Z,4.38
2022-12-14T13:31:02.421Z,4.15
2022-12-14T13:34:12.839Z,4.01
2022-12-14T13:37:21.190Z,3.92
2022-12-14T13:40:54.279Z,3.91
2022-12-14T13:43:43.844Z,3.96
2022-12-14T13:46:22.401Z,4.05
2022-12-14T13:48:53.966Z,4.08
2022-12-14T13:51:50.757Z,4.03
2022-12-14T13:54:30.284Z,3.94
2022-12-14T13:57:08.660Z,3.82
2022-12-14T13:59:42.463Z,3.79
2022-12-14T14:02:39.739Z,3.83
2022-12-14T14:05:43.807Z,3.89
2022-12-14T14:08:36.043Z,3.85
2022-12-14T14:11:45.111Z,3.84
2022-12-14T14:14:40.732Z,3.81
2022-12-14T14:17:17.646Z,3.82
2022-12-14T14:19:49.563Z,3.99
2022-12-14T14:22:24.329Z,3.95
2022-12-14T14:25:00.416Z,3.88
2022-12-14T14:27:36.179Z,3.86
2022-12-14T14:30:22.732Z,3.88
2022-12-14T14:33:07.493Z,3.93
2022-12-14T14:35:42.117Z,3.94
2022-12-14T14:38:24.978Z,3.94
2022-12-14T14:41:16.011Z,4.01
2022-12-14T14:43:50.582Z,4.24
2022-12-14T14:46:23.213Z,4.28
2022-12-14T14:48:55.333Z,4.31
2022-12-14T14:51:28.401Z,4.48
2022-12-14T14:55:07.066Z,4.33
2022-12-14T14:57:56.763Z,4.11
2022-12-14T15:00:24.856Z,4.02
2022-12-14T15:02:55.520Z,3.89
2022-12-14T15:05:43.895Z,3.79
2022-12-14T15:08:19.518Z,3.70
2022-12-14T15:10:48.249Z,3.62
2022-12-14T15:13:22.938Z,3.54
2022-12-14T15:15:53.431Z,3.47
2022-12-14T15:18:24.259Z,3.46
2022-12-14T15:21:00.827Z,3.48
2022-12-14T15:23:36.711Z,3.45
2022-12-14T15:26:17.134Z,3.42
2022-12-14T15:28:49.538Z,3.38
2022-12-14T15:31:18.570Z,3.34
2022-12-14T15:33:48.614Z,3.38
2022-12-14T15:36:19.854Z,3.37
2022-12-14T15:38:55.195Z,3.31
2022-12-14T15:41:25.885Z,3.25
2022-12-14T15:43:58.146Z,3.18
2022-12-14T15:46:31.652Z,3.12
2022-12-14T15:49:03.463Z,3.08
2022-12-14T15:51:36.187Z,3.08
2022-12-14T15:54:07.773Z,3.10
2022-12-14T15:56:37.893Z,3.10
2022-12-14T15:59:16.213Z,3.08
2022-12-14T16:01:54.265Z,3.07
2022-12-14T16:04:27.559Z,3.03
2022-12-14T16:07:08.120Z,2.98
2022-12-14T16:09:41.398Z,2.96
2022-12-14T16:12:18.510Z,2.94
2022-12-14T16:14:54.075Z,2.93
2022-12-14T16:17:26.374Z,2.89
2022-12-14T16:20:00.520Z,2.83
2022-12-14T16:22:31.969Z,2.79
2022-12-14T16:25:16.705Z,2.74
2022-12-14T16:27:50.179Z,2.70
2022-12-14T16:30:27.622Z,2.74
2022-12-14T16:33:14.963Z,2.73
2022-12-14T16:35:43.444Z,2.73
2022-12-14T16:38:14.873Z,2.70
2022-12-14T16:40:53.126Z,2.67
2022-12-14T16:43:29.299Z,2.61
2022-12-14T16:46:18.047Z,2.53
2022-12-14T16:49:18.965Z,2.47
2022-12-14T16:52:06.755Z,2.42
2022-12-14T16:54:36.608Z,2.40
2022-12-14T16:57:16.979Z,2.38
2022-12-14T16:59:48.551Z,2.32
2022-12-14T17:02:31.460Z,2.33
2022-12-14T17:05:02.373Z,2.33
2022-12-14T17:07:32.917Z,2.64
2022-12-14T17:10:01.582Z,2.59
2022-12-14T17:12:28.634Z,2.57
2022-12-14T17:14:55.994Z,2.51
2022-12-14T17:17:33.263Z,2.44
2022-12-14T17:20:03.962Z,2.44
2022-12-14T17:22:33.616Z,2.45
2022-12-14T17:25:02.434Z,2.45
2022-12-14T17:27:30.443Z,2.46
2022-12-14T17:29:57.612Z,2.47
2022-12-14T17:32:29.802Z,2.46
2022-12-14T17:34:57.147Z,2.43
2022-12-14T17:37:30.999Z,2.36
2022-12-14T17:40:04.708Z,2.26
2022-12-14T17:42:31.890Z,2.19
2022-12-14T17:45:00.736Z,2.12
2022-12-14T17:47:28.086Z,2.04
2022-12-14T17:49:55.479Z,2.01
2022-12-14T17:52:28.175Z,1.92
2022-12-14T17:54:55.253Z,1.84
2022-12-14T17:57:26.384Z,1.77
2022-12-14T18:00:12.312Z,1.74
2022-12-14T18:02:40.721Z,1.73
2022-12-14T18:05:18.313Z,1.73
2022-12-14T18:07:45.381Z,1.74
2022-12-14T18:10:14.372Z,1.75
2022-12-14T18:12:43.059Z,1.73
2022-12-14T18:15:18.274Z,1.69
2022-12-14T18:17:45.612Z,1.72
2022-12-14T18:20:17.623Z,1.76
2022-12-14T18:22:45.348Z,1.77
2022-12-14T18:25:31.487Z,1.73
2022-12-14T18:28:01.896Z,1.72
2022-12-14T18:30:35.063Z,1.70
2022-12-14T18:33:04.390Z,1.69
2022-12-14T18:35:34.077Z,1.69
2022-12-14T18:38:01.271Z,1.69
2022-12-14T18:40:29.874Z,1.65
2022-12-14T18:42:57.951Z,1.61
2022-12-14T18:45:29.568Z,1.52
2022-12-14T18:47:57.385Z,1.47
2022-12-14T18:50:24.926Z,1.41
2022-12-14T18:52:52.312Z,1.40
2022-12-14T18:55:22.615Z,1.36
2022-12-14T18:57:52.864Z,1.41
2022-12-14T19:00:22.972Z,1.48
2022-12-14T19:02:52.990Z,1.50
2022-12-14T19:05:25.917Z,1.47
2022-12-14T19:07:54.412Z,1.45
2022-12-14T19:10:24.630Z,1.42
2022-12-14T19:12:52.584Z,1.42
2022-12-14T19:15:23.059Z,1.41
2022-12-14T19:17:52.539Z,1.36
2022-12-14T19:20:23.138Z,1.36
2022-12-14T19:22:51.374Z,1.36
2022-12-14T19:25:20.824Z,1.36
2022-12-14T19:30:39.920Z,1.28
2022-12-14T19:33:11.089Z,1.26
2022-12-14T19:35:40.713Z,1.18
2022-12-14T19:38:14.366Z,1.16
2022-12-14T19:40:42.091Z,1.13
2022-12-14T19:43:09.126Z,1.14
2022-12-14T19:45:39.381Z,1.18
2022-12-14T19:48:12.967Z,1.15
2022-12-14T19:50:40.854Z,1.16
2022-12-14T19:53:07.821Z,1.17
2022-12-14T19:55:35.671Z,1.18
2022-12-14T19:58:03.002Z,1.18
2022-12-14T20:00:30.861Z,1.19
2022-12-14T20:02:57.986Z,1.18
2022-12-14T20:05:26.406Z,1.19
2022-12-14T20:07:53.825Z,1.20
2022-12-14T20:10:21.057Z,1.21
2022-12-14T20:12:48.292Z,1.23
2022-12-14T20:15:15.304Z,1.21
2022-12-14T20:17:42.563Z,1.13
2022-12-14T20:20:12.038Z,0.98
2022-12-14T20:22:40.807Z,0.83
2022-12-14T20:25:09.068Z,0.68
2022-12-14T20:27:40.528Z,0.58
2022-12-14T20:30:10.625Z,0.50
2022-12-14T20:32:37.677Z,0.55
2022-12-14T20:35:07.403Z,0.59
2022-12-14T20:37:34.316Z,0.59
2022-12-14T20:40:04.122Z,0.59
2022-12-14T20:42:31.342Z,0.61
2022-12-14T20:45:01.365Z,0.61
2022-12-14T20:47:32.426Z,0.60
2022-12-14T20:49:59.374Z,0.57
2022-12-14T20:52:26.312Z,0.54
2022-12-14T20:54:54.620Z,0.54
2022-12-14T20:57:23.276Z,0.53
2022-12-14T20:59:50.199Z,0.50
2022-12-14T21:02:20.491Z,0.48
2022-12-14T21:04:47.833Z,0.44
2022-12-14T21:07:15.169Z,0.39
2022-12-14T21:09:42.170Z,0.42
2022-12-14T21:12:22.156Z,0.45
2022-12-14T21:14:54.677Z,0.55
2022-12-14T21:17:25.171Z,0.62
2022-12-14T21:19:52.519Z,0.70
2022-12-14T21:22:23.311Z,0.83
2022-12-14T21:25:07.330Z,0.87
2022-12-14T21:27:38.671Z,1.00
2022-12-14T21:30:11.233Z,1.10
2022-12-14T21:32:39.267Z,1.19
2022-12-14T21:35:07.547Z,1.30
2022-12-14T21:37:36.702Z,1.36
2022-12-14T21:40:05.241Z,1.40
2022-12-14T21:42:32.165Z,1.44
2022-12-14T21:44:59.219Z,1.42
2022-12-14T21:47:29.767Z,1.45
2022-12-14T21:49:57.182Z,1.50
2022-12-14T21:52:27.420Z,1.55
2022-12-14T21:54:54.767Z,1.61
2022-12-14T21:57:42.667Z,1.64
2022-12-14T22:00:11.413Z,1.50
2022-12-14T22:02:41.812Z,1.48
2022-12-14T22:05:09.672Z,1.51
2022-12-14T22:07:36.764Z,1.57
2022-12-14T22:10:05.374Z,1.63
2022-12-14T22:12:32.495Z,1.64
2022-12-14T22:14:59.615Z,1.65
2022-12-14T22:17:26.639Z,1.65
2022-12-14T22:19:55.157Z,1.64
2022-12-14T22:22:23.086Z,1.63
2022-12-14T22:24:51.137Z,1.65
2022-12-14T22:27:19.592Z,1.65
2022-12-14T22:29:46.775Z,1.65
2022-12-14T22:32:14.780Z,1.63
2022-12-14T22:34:42.179Z,1.65
2022-12-14T22:37:14.134Z,1.63
2022-12-14T22:39:41.080Z,1.70
2022-12-14T22:42:08.065Z,1.63
2022-12-14T22:44:34.992Z,1.51
2022-12-14T22:47:01.938Z,1.33
2022-12-14T22:49:28.898Z,1.20
2022-12-14T22:51:56.384Z,1.18
2022-12-14T22:54:27.707Z,1.23
2022-12-14T22:57:00.173Z,1.31
2022-12-14T22:59:36.201Z,1.40
2022-12-14T23:02:04.238Z,1.45
2022-12-14T23:04:31.781Z,1.52
2022-12-14T23:06:58.974Z,1.56
2022-12-14T23:09:45.842Z,1.61
2022-12-14T23:12:31.325Z,1.65
2022-12-14T23:15:18.034Z,1.71
2022-12-14T23:18:03.921Z,1.71
2022-12-14T23:20:49.473Z,1.68
2022-12-14T23:23:35.548Z,1.70
2022-12-14T23:26:23.578Z,1.74
2022-12-14T23:29:09.463Z,1.66
2022-12-14T23:31:55.148Z,1.52
2022-12-14T23:34:40.630Z,1.48
2022-12-14T23:37:26.501Z,1.32
2022-12-14T23:40:12.162Z,1.27
2022-12-14T23:42:58.836Z,1.35
2022-12-14T23:45:44.359Z,1.49
2022-12-14T23:48:30.236Z,1.61
2022-12-14T23:51:15.722Z,1.61
2022-12-14T23:54:01.262Z,1.48
2022-12-14T23:56:46.722Z,1.32
2022-12-14T23:59:33.537Z,1.06
